createdAt,value
2022-11-04T00:02:47.737Z,14.15
2022-11-04T00:08:10.223Z,13.23
2022-11-04T00:13:13.622Z,12.43
2022-11-04T00:18:17.226Z,13.43
2022-11-04T00:23:39.579Z,14.27
2022-11-04T00:28:45.721Z,14.50
2022-11-04T00:33:49.804Z,11.60
2022-11-04T00:38:54.823Z,11.43
2022-11-04T00:43:59.821Z,12.27
2022-11-04T00:49:03.387Z,11.93
2022-11-04T00:54:08.471Z,12.55
2022-11-04T00:59:14.455Z,11.77
2022-11-04T01:04:18.174Z,11.63
2022-11-04T01:09:23.060Z,11.73
2022-11-04T01:14:26.705Z,11.45
2022-11-04T01:19:30.424Z,12.23
2022-11-04T01:24:35.209Z,11.45
2022-11-04T01:29:39.150Z,12.20
2022-11-04T01:34:43.797Z,12.05
2022-11-04T01:39:48.637Z,10.55
2022-11-04T01:44:54.780Z,11.07
2022-11-04T01:50:04.599Z,10.77
2022-11-04T01:55:15.231Z,11.00
2022-11-04T02:00:19.595Z,10.13
2022-11-04T02:05:24.123Z,9.82
2022-11-04T02:10:30.939Z,10.23
2022-11-04T02:15:41.280Z,10.70
2022-11-04T02:21:17.282Z,10.13
2022-11-04T02:26:56.253Z,9.43
2022-11-04T02:32:10.359Z,9.82
2022-11-04T02:37:18.859Z,10.02
2022-11-04T02:42:29.125Z,11.40
2022-11-04T02:47:37.859Z,10.57
2022-11-04T02:52:51.425Z,9.88
2022-11-04T02:57:58.589Z,9.57
2022-11-04T03:03:10.450Z,9.75
2022-11-04T03:08:19.401Z,10.30
2022-11-04T03:13:28.769Z,10.70
2022-11-04T03:18:39.386Z,10.35
2022-11-04T03:23:43.184Z,10.23
2022-11-04T03:28:53.645Z,9.75
2022-11-04T03:33:59.476Z,11.23
2022-11-04T03:39:02.928Z,9.02
2022-11-04T03:44:06.491Z,10.25
2022-11-04T03:49:12.563Z,9.93
2022-11-04T03:54:16.911Z,10.75
2022-11-04T03:59:41.279Z,10.13
2022-11-04T04:04:55.895Z,9.80
2022-11-04T04:10:25.027Z,9.48
2022-11-04T04:15:33.597Z,11.10
2022-11-04T04:20:40.831Z,10.23
2022-11-04T04:26:01.808Z,10.48
2022-11-04T04:31:05.707Z,11.85
2022-11-04T04:36:11.161Z,11.68
2022-11-04T04:41:36.849Z,12.18
2022-11-04T04:46:42.645Z,11.48
2022-11-04T04:51:49.405Z,11.13
2022-11-04T04:56:53.041Z,11.65
2022-11-04T05:01:56.563Z,12.07
2022-11-04T05:07:01.921Z,12.10
2022-11-04T05:12:05.816Z,12.57
2022-11-04T05:17:09.458Z,12.18
2022-11-04T05:22:14.226Z,13.63
2022-11-04T05:27:17.756Z,14.68
2022-11-04T05:32:21.141Z,13.20
2022-11-04T05:37:26.489Z,14.07
2022-11-04T05:42:30.632Z,13.70
2022-11-04T05:47:34.034Z,13.65
2022-11-04T05:52:38.916Z,14.38
2022-11-04T05:57:42.302Z,14.55
2022-11-04T06:02:46.122Z,15.32
2022-11-04T06:07:50.963Z,14.45
2022-11-04T06:12:54.389Z,16.33
2022-11-04T06:17:57.915Z,16.58
2022-11-04T06:23:02.697Z,17.73
2022-11-04T06:28:06.716Z,17.52
2022-11-04T06:33:10.633Z,18.77
2022-11-04T06:38:15.424Z,17.40
2022-11-04T06:43:18.800Z,19.08
2022-11-04T06:48:22.269Z,19.15
2022-11-04T06:53:27.570Z,20.55
2022-11-04T06:58:31.203Z,19.63
2022-11-04T07:03:35.094Z,20.02
2022-11-04T07:08:40.946Z,18.33
2022-11-04T07:13:44.403Z,19.33
2022-11-04T07:18:49.239Z,19.45
2022-11-04T07:23:56.757Z,17.13
2022-11-04T07:29:01.673Z,17.15
2022-11-04T07:34:06.213Z,15.35
2022-11-04T07:39:11.069Z,17.15
2022-11-04T07:44:14.915Z,16.48
2022-11-04T07:49:18.280Z,15.90
2022-11-04T07:54:23.136Z,14.73
2022-11-04T07:59:28.175Z,14.77
2022-11-04T08:04:31.604Z,15.27
2022-11-04T08:09:37.614Z,16.38
2022-11-04T08:14:41.043Z,16.05
2022-11-04T08:19:47.167Z,13.93
2022-11-04T08:24:53.103Z,13.90
2022-11-04T08:29:56.871Z,14.10
2022-11-04T08:35:00.218Z,15.55
2022-11-04T08:40:06.669Z,15.75
2022-11-04T08:45:10.652Z,13.13
2022-11-04T08:50:14.319Z,14.60
2022-11-04T08:55:20.549Z,14.48
2022-11-04T09:00:24.196Z,14.75
2022-11-04T09:05:27.933Z,16.58
2022-11-04T09:10:32.720Z,15.05
2022-11-04T09:15:36.842Z,16.20
2022-11-04T09:20:42.191Z,15.10
2022-11-04T09:25:49.030Z,15.98
2022-11-04T09:30:52.922Z,16.88
2022-11-04T09:35:57.792Z,14.25
2022-11-04T09:41:32.305Z,14.25
2022-11-04T09:46:37.656Z,15.30
2022-11-04T09:51:54.276Z,15.00
2022-11-04T09:57:02.729Z,13.60
2022-11-04T10:02:35.602Z,13.13
2022-11-04T10:08:06.014Z,14.40
2022-11-04T10:13:22.389Z,13.77
2022-11-04T10:18:36.727Z,12.60
2022-11-04T10:23:45.810Z,13.80
2022-11-04T10:28:57.227Z,14.57
2022-11-04T10:34:07.701Z,12.70
2022-11-04T10:39:17.695Z,14.32
2022-11-04T10:44:25.543Z,13.80
2022-11-04T10:50:13.890Z,14.35
2022-11-04T10:55:26.290Z,14.13
2022-11-04T11:00:39.925Z,14.85
2022-11-04T11:05:43.557Z,13.55
2022-11-04T11:10:53.255Z,13.43
2022-11-04T11:16:10.097Z,13.60
2022-11-04T11:21:21.316Z,13.98
2022-11-04T11:26:32.688Z,12.85
2022-11-04T11:31:40.305Z,13.07
2022-11-04T11:36:47.654Z,12.52
2022-11-04T11:41:55.242Z,13.40
2022-11-04T11:47:03.036Z,13.20
2022-11-04T11:52:33.849Z,13.57
2022-11-04T11:57:45.241Z,11.43
2022-11-04T12:02:57.136Z,14.13
2022-11-04T12:13:43.070Z,12.82
2022-11-04T12:19:05.751Z,14.10
2022-11-04T12:24:27.553Z,12.85
2022-11-04T12:29:45.390Z,14.52
2022-11-04T12:35:04.295Z,14.90
2022-11-04T12:40:13.967Z,14.55
2022-11-04T12:45:28.892Z,13.55
2022-11-04T12:50:56.435Z,14.85
2022-11-04T12:56:08.023Z,13.60
2022-11-04T13:01:16.282Z,13.20
2022-11-04T13:06:27.182Z,13.52
2022-11-04T13:18:20.483Z,13.07
2022-11-04T13:23:29.522Z,12.73
2022-11-04T13:28:33.372Z,12.25
2022-11-04T13:33:48.532Z,13.65
2022-11-04T13:38:55.958Z,13.07
2022-11-04T13:44:02.644Z,12.88
2022-11-04T13:49:17.253Z,13.63
2022-11-04T13:54:31.349Z,16.45
2022-11-04T13:59:35.412Z,17.10
2022-11-04T14:04:39.717Z,16.38
2022-11-04T14:10:03.526Z,17.17
2022-11-04T14:16:01.251Z,15.32
2022-11-04T14:21:08.411Z,17.02
2022-11-04T14:26:15.725Z,16.65
2022-11-04T14:31:37.441Z,15.63
2022-11-04T14:36:42.536Z,15.75
2022-11-04T14:41:57.394Z,15.15
2022-11-04T14:47:07.365Z,16.13
2022-11-04T14:52:28.935Z,18.15
2022-11-04T14:57:39.420Z,20.55
2022-11-04T15:02:43.995Z,20.05
2022-11-04T15:07:47.731Z,20.67
2022-11-04T15:12:55.148Z,19.13
2022-11-04T15:18:01.926Z,16.05
2022-11-04T15:23:09.188Z,16.48
2022-11-04T15:28:20.963Z,14.55
2022-11-04T15:33:27.725Z,16.15
2022-11-04T15:38:32.296Z,15.90
2022-11-04T15:43:37.088Z,17.20
2022-11-04T15:48:41.459Z,18.15
2022-11-04T15:53:51.780Z,17.77
2022-11-04T15:58:58.300Z,18.00
2022-11-04T16:04:03.070Z,22.75
2022-11-04T16:09:19.769Z,26.73
2022-11-04T16:14:26.602Z,28.98
2022-11-04T16:19:32.231Z,29.80
2022-11-04T16:24:37.972Z,27.45
2022-11-04T16:29:47.786Z,27.30
2022-11-04T16:34:53.873Z,27.08
2022-11-04T16:39:57.261Z,27.27
2022-11-04T16:45:03.598Z,29.45
2022-11-04T16:50:14.664Z,22.80
2022-11-04T16:55:19.950Z,20.48
2022-11-04T17:00:26.777Z,21.23
2022-11-04T17:05:30.418Z,27.25
2022-11-04T17:10:36.345Z,23.77
2022-11-04T17:15:41.682Z,25.95
2022-11-04T17:20:48.523Z,31.38
2022-11-04T17:25:52.842Z,30.33
2022-11-04T17:30:57.573Z,27.73
2022-11-04T17:36:04.880Z,26.10
2022-11-04T17:41:28.422Z,26.40
2022-11-04T17:46:35.201Z,24.25
2022-11-04T17:51:40.812Z,22.38
2022-11-04T17:56:44.651Z,28.23
2022-11-04T18:01:49.479Z,27.27
2022-11-04T18:06:57.194Z,26.55
2022-11-04T18:12:22.650Z,30.35
2022-11-04T18:17:27.740Z,28.38
2022-11-04T18:22:31.147Z,27.67
2022-11-04T18:27:34.499Z,31.80
2022-11-04T18:32:39.227Z,30.13
2022-11-04T18:37:47.058Z,30.80
2022-11-04T18:42:50.942Z,30.55
2022-11-04T18:47:55.641Z,32.72
2022-11-04T18:52:58.968Z,29.95
2022-11-04T18:58:03.095Z,28.25
2022-11-04T19:03:07.891Z,27.85
2022-11-04T19:08:11.498Z,29.40
2022-11-04T19:13:20.846Z,31.52
2022-11-04T19:18:25.561Z,31.38
2022-11-04T19:23:31.123Z,27.38
2022-11-04T19:28:44.804Z,30.65
2022-11-04T19:33:53.006Z,29.35
2022-11-04T19:38:57.759Z,36.25
2022-11-04T19:44:03.768Z,36.50
2022-11-04T19:49:09.361Z,32.80
2022-11-04T19:54:13.393Z,29.73
2022-11-04T19:59:18.886Z,31.92
2022-11-04T20:04:23.602Z,31.08
2022-11-04T20:09:27.005Z,28.55
2022-11-04T20:14:30.645Z,30.73
2022-11-04T20:19:36.063Z,30.10
2022-11-04T20:24:39.461Z,30.38
2022-11-04T20:29:43.144Z,28.25
2022-11-04T20:34:48.959Z,28.30
2022-11-04T20:39:52.377Z,29.73
2022-11-04T20:44:55.802Z,34.75
2022-11-04T20:50:00.520Z,42.58
2022-11-04T20:55:04.497Z,32.67
2022-11-04T21:00:09.386Z,31.92
2022-11-04T21:05:14.967Z,30.80
2022-11-04T21:10:18.614Z,32.22
2022-11-04T21:15:39.287Z,29.23
2022-11-04T21:20:44.134Z,28.77
2022-11-04T21:25:49.774Z,27.35
2022-11-04T21:30:55.353Z,28.27
2022-11-04T21:36:04.651Z,27.63
2022-11-04T21:41:10.751Z,27.63
2022-11-04T21:46:15.249Z,30.00
2022-11-04T21:51:22.064Z,29.10
2022-11-04T21:56:27.495Z,27.48
2022-11-04T22:01:32.493Z,26.27
2022-11-04T22:06:37.507Z,26.02
2022-11-04T22:11:40.954Z,23.50
2022-11-04T22:16:44.330Z,23.88
2022-11-04T22:21:49.356Z,23.55
2022-11-04T22:26:53.028Z,24.90
2022-11-04T22:31:56.378Z,25.48
2022-11-04T22:37:01.203Z,21.85
2022-11-04T22:42:04.677Z,18.75
2022-11-04T22:47:08.027Z,17.67
2022-11-04T22:52:12.754Z,12.95
2022-11-04T22:57:16.074Z,11.23
2022-11-04T23:02:19.632Z,9.73
2022-11-04T23:07:24.454Z,10.73
2022-11-04T23:12:45.667Z,11.88
2022-11-04T23:18:06.608Z,13.48
2022-11-04T23:23:28.914Z,16.48
2022-11-04T23:28:49.855Z,16.10
2022-11-04T23:34:10.750Z,18.92
2022-11-04T23:39:15.503Z,19.73
2022-11-04T23:44:32.814Z,18.42
2022-11-04T23:49:53.713Z,18.00
2022-11-04T23:55:16.110Z,16.30
